sensor_id;sensor_type;location;lat;lon;timestamp;P1;durP1;ratioP1;P2;durP2;ratioP2
41921;SDS011;27609;51.002;5.354;2022-07-11T00:02:07;5.03;;;3.30;;
41921;SDS011;27609;51.002;5.354;2022-07-11T00:04:35;8.48;;;3.63;;
41921;SDS011;27609;51.002;5.354;2022-07-11T00:07:08;9.27;;;3.22;;
41921;SDS011;27609;51.002;5.354;2022-07-11T00:09:34;4.70;;;3.40;;
41921;SDS011;27609;51.002;5.354;2022-07-11T00:12:00;6.60;;;3.28;;
41921;SDS011;27609;51.002;5.354;2022-07-11T00:14:27;5.13;;;3.10;;
41921;SDS011;27609;51.002;5.354;2022-07-11T00:16:53;5.18;;;3.05;;
41921;SDS011;27609;51.002;5.354;2022-07-11T00:19:20;6.95;;;3.53;;
41921;SDS011;27609;51.002;5.354;2022-07-11T00:21:47;7.35;;;3.53;;
41921;SDS011;27609;51.002;5.354;2022-07-11T00:24:13;7.20;;;3.97;;
41921;SDS011;27609;51.002;5.354;2022-07-11T00:26:39;7.13;;;3.70;;
41921;SDS011;27609;51.002;5.354;2022-07-11T00:29:05;6.80;;;3.33;;
41921;SDS011;27609;51.002;5.354;2022-07-11T00:31:31;5.38;;;3.53;;
41921;SDS011;27609;51.002;5.354;2022-07-11T00:33:58;6.45;;;3.95;;
41921;SDS011;27609;51.002;5.354;2022-07-11T00:36:24;5.60;;;3.60;;
41921;SDS011;27609;51.002;5.354;2022-07-11T00:38:50;6.55;;;4.05;;
41921;SDS011;27609;51.002;5.354;2022-07-11T00:41:16;4.85;;;4.20;;
41921;SDS011;27609;51.002;5.354;2022-07-11T00:43:49;6.07;;;4.47;;
41921;SDS011;27609;51.002;5.354;2022-07-11T00:46:23;4.97;;;4.15;;
41921;SDS011;27609;51.002;5.354;2022-07-11T00:48:49;6.35;;;4.40;;
41921;SDS011;27609;51.002;5.354;2022-07-11T00:51:17;6.30;;;4.60;;
41921;SDS011;27609;51.002;5.354;2022-07-11T00:53:46;8.02;;;5.32;;
41921;SDS011;27609;51.002;5.354;2022-07-11T00:56:20;7.00;;;4.85;;
41921;SDS011;27609;51.002;5.354;2022-07-11T00:58:48;7.45;;;4.32;;
41921;SDS011;27609;51.002;5.354;2022-07-11T01:01:14;4.93;;;4.50;;
41921;SDS011;27609;51.002;5.354;2022-07-11T01:03:41;8.20;;;4.35;;
41921;SDS011;27609;51.002;5.354;2022-07-11T01:06:07;6.82;;;5.13;;
41921;SDS011;27609;51.002;5.354;2022-07-11T01:08:34;7.55;;;4.20;;
41921;SDS011;27609;51.002;5.354;2022-07-11T01:11:01;6.95;;;3.90;;
41921;SDS011;27609;51.002;5.354;2022-07-11T01:13:28;7.65;;;4.35;;
41921;SDS011;27609;51.002;5.354;2022-07-11T01:16:15;6.50;;;4.38;;
41921;SDS011;27609;51.002;5.354;2022-07-11T01:18:46;8.38;;;5.00;;
41921;SDS011;27609;51.002;5.354;2022-07-11T01:23:48;6.35;;;4.75;;
41921;SDS011;27609;51.002;5.354;2022-07-11T01:26:15;11.30;;;5.30;;
41921;SDS011;27609;51.002;5.354;2022-07-11T01:28:45;7.43;;;5.07;;
41921;SDS011;27609;51.002;5.354;2022-07-11T01:31:11;7.90;;;5.20;;
41921;SDS011;27609;51.002;5.354;2022-07-11T01:33:38;6.82;;;5.22;;
41921;SDS011;27609;51.002;5.354;2022-07-11T01:36:04;6.03;;;5.20;;
41921;SDS011;27609;51.002;5.354;2022-07-11T01:38:30;7.47;;;6.22;;
41921;SDS011;27609;51.002;5.354;2022-07-11T01:40:57;7.28;;;5.35;;
41921;SDS011;27609;51.002;5.354;2022-07-11T01:43:23;5.97;;;5.07;;
41921;SDS011;27609;51.002;5.354;2022-07-11T01:45:50;6.88;;;4.88;;
41921;SDS011;27609;51.002;5.354;2022-07-11T01:48:17;9.45;;;4.97;;
41921;SDS011;27609;51.002;5.354;2022-07-11T01:50:43;5.68;;;4.50;;
41921;SDS011;27609;51.002;5.354;2022-07-11T01:53:10;5.18;;;4.63;;
41921;SDS011;27609;51.002;5.354;2022-07-11T01:55:36;7.78;;;4.60;;
41921;SDS011;27609;51.002;5.354;2022-07-11T01:58:04;10.27;;;5.10;;
41921;SDS011;27609;51.002;5.354;2022-07-11T02:00:30;8.63;;;5.22;;
41921;SDS011;27609;51.002;5.354;2022-07-11T02:02:56;7.22;;;5.30;;
41921;SDS011;27609;51.002;5.354;2022-07-11T02:05:22;7.85;;;5.15;;
41921;SDS011;27609;51.002;5.354;2022-07-11T02:07:47;5.30;;;4.80;;
41921;SDS011;27609;51.002;5.354;2022-07-11T02:10:32;8.35;;;5.10;;
41921;SDS011;27609;51.002;5.354;2022-07-11T02:12:58;6.15;;;4.55;;
41921;SDS011;27609;51.002;5.354;2022-07-11T02:15:25;12.18;;;6.07;;
41921;SDS011;27609;51.002;5.354;2022-07-11T02:17:52;9.75;;;6.85;;
41921;SDS011;27609;51.002;5.354;2022-07-11T02:20:18;7.72;;;6.20;;
41921;SDS011;27609;51.002;5.354;2022-07-11T02:22:44;6.60;;;5.72;;
41921;SDS011;27609;51.002;5.354;2022-07-11T02:25:10;5.57;;;4.68;;
41921;SDS011;27609;51.002;5.354;2022-07-11T02:27:37;5.93;;;4.70;;
41921;SDS011;27609;51.002;5.354;2022-07-11T02:30:03;10.23;;;5.53;;
41921;SDS011;27609;51.002;5.354;2022-07-11T02:32:29;10.48;;;5.13;;
41921;SDS011;27609;51.002;5.354;2022-07-11T02:34:55;9.38;;;5.90;;
41921;SDS011;27609;51.002;5.354;2022-07-11T02:37:21;9.23;;;6.38;;
41921;SDS011;27609;51.002;5.354;2022-07-11T02:39:47;6.05;;;5.40;;
41921;SDS011;27609;51.002;5.354;2022-07-11T02:42:13;5.60;;;4.90;;
41921;SDS011;27609;51.002;5.354;2022-07-11T02:44:40;7.13;;;5.38;;
41921;SDS011;27609;51.002;5.354;2022-07-11T02:47:06;7.85;;;6.40;;
41921;SDS011;27609;51.002;5.354;2022-07-11T02:49:32;7.60;;;5.55;;
41921;SDS011;27609;51.002;5.354;2022-07-11T02:51:58;6.97;;;5.88;;
41921;SDS011;27609;51.002;5.354;2022-07-11T02:54:24;8.00;;;5.55;;
41921;SDS011;27609;51.002;5.354;2022-07-11T02:56:50;7.82;;;6.32;;
41921;SDS011;27609;51.002;5.354;2022-07-11T02:59:16;8.95;;;5.80;;
41921;SDS011;27609;51.002;5.354;2022-07-11T03:01:42;8.40;;;6.18;;
41921;SDS011;27609;51.002;5.354;2022-07-11T03:04:11;8.48;;;6.70;;
41921;SDS011;27609;51.002;5.354;2022-07-11T03:06:37;7.83;;;6.37;;
41921;SDS011;27609;51.002;5.354;2022-07-11T03:09:04;7.70;;;6.63;;
41921;SDS011;27609;51.002;5.354;2022-07-11T03:11:31;9.55;;;8.30;;
41921;SDS011;27609;51.002;5.354;2022-07-11T03:13:57;12.30;;;7.93;;
41921;SDS011;27609;51.002;5.354;2022-07-11T03:16:23;9.20;;;7.70;;
41921;SDS011;27609;51.002;5.354;2022-07-11T03:18:49;10.27;;;7.80;;
41921;SDS011;27609;51.002;5.354;2022-07-11T03:21:15;10.77;;;7.57;;
41921;SDS011;27609;51.002;5.354;2022-07-11T03:23:41;8.80;;;7.90;;
41921;SDS011;27609;51.002;5.354;2022-07-11T03:26:07;12.82;;;8.98;;
41921;SDS011;27609;51.002;5.354;2022-07-11T03:28:33;12.75;;;8.70;;
41921;SDS011;27609;51.002;5.354;2022-07-11T03:30:59;13.35;;;9.55;;
41921;SDS011;27609;51.002;5.354;2022-07-11T03:33:25;9.80;;;8.88;;
41921;SDS011;27609;51.002;5.354;2022-07-11T03:35:52;11.00;;;8.40;;
41921;SDS011;27609;51.002;5.354;2022-07-11T03:38:18;9.15;;;7.70;;
41921;SDS011;27609;51.002;5.354;2022-07-11T03:40:45;10.25;;;8.25;;
41921;SDS011;27609;51.002;5.354;2022-07-11T03:43:12;10.30;;;7.55;;
41921;SDS011;27609;51.002;5.354;2022-07-11T03:45:41;8.35;;;6.45;;
41921;SDS011;27609;51.002;5.354;2022-07-11T03:48:07;7.35;;;6.40;;
41921;SDS011;27609;51.002;5.354;2022-07-11T03:50:34;7.65;;;6.32;;
41921;SDS011;27609;51.002;5.354;2022-07-11T03:53:00;10.25;;;7.78;;
41921;SDS011;27609;51.002;5.354;2022-07-11T03:55:27;9.18;;;7.65;;
41921;SDS011;27609;51.002;5.354;2022-07-11T03:57:54;10.50;;;7.82;;
41921;SDS011;27609;51.002;5.354;2022-07-11T04:00:20;10.75;;;9.02;;
41921;SDS011;27609;51.002;5.354;2022-07-11T04:02:46;11.65;;;9.10;;
41921;SDS011;27609;51.002;5.354;2022-07-11T04:05:13;11.00;;;6.68;;
41921;SDS011;27609;51.002;5.354;2022-07-11T04:07:39;10.30;;;7.25;;
41921;SDS011;27609;51.002;5.354;2022-07-11T04:10:08;8.10;;;7.25;;
41921;SDS011;27609;51.002;5.354;2022-07-11T04:12:34;10.75;;;7.55;;
41921;SDS011;27609;51.002;5.354;2022-07-11T04:15:00;11.45;;;8.25;;
41921;SDS011;27609;51.002;5.354;2022-07-11T04:17:27;10.27;;;7.90;;
41921;SDS011;27609;51.002;5.354;2022-07-11T04:19:55;11.05;;;8.98;;
41921;SDS011;27609;51.002;5.354;2022-07-11T04:22:21;12.90;;;9.02;;
41921;SDS011;27609;51.002;5.354;2022-07-11T04:24:48;9.70;;;7.28;;
41921;SDS011;27609;51.002;5.354;2022-07-11T04:27:13;7.97;;;6.80;;
41921;SDS011;27609;51.002;5.354;2022-07-11T04:29:39;9.55;;;7.22;;
41921;SDS011;27609;51.002;5.354;2022-07-11T04:32:05;10.65;;;8.07;;
41921;SDS011;27609;51.002;5.354;2022-07-11T04:34:32;9.05;;;7.85;;
41921;SDS011;27609;51.002;5.354;2022-07-11T04:36:58;9.15;;;7.97;;
41921;SDS011;27609;51.002;5.354;2022-07-11T04:39:24;16.33;;;9.48;;
41921;SDS011;27609;51.002;5.354;2022-07-11T04:41:50;12.27;;;9.45;;
41921;SDS011;27609;51.002;5.354;2022-07-11T04:44:16;8.75;;;7.60;;
41921;SDS011;27609;51.002;5.354;2022-07-11T04:46:42;9.93;;;7.55;;
41921;SDS011;27609;51.002;5.354;2022-07-11T04:49:08;10.82;;;8.05;;
41921;SDS011;27609;51.002;5.354;2022-07-11T04:51:34;10.80;;;8.50;;
41921;SDS011;27609;51.002;5.354;2022-07-11T04:54:01;13.98;;;8.68;;
41921;SDS011;27609;51.002;5.354;2022-07-11T04:56:28;11.48;;;9.23;;
41921;SDS011;27609;51.002;5.354;2022-07-11T04:58:54;11.75;;;8.82;;
41921;SDS011;27609;51.002;5.354;2022-07-11T05:01:22;12.73;;;8.63;;
41921;SDS011;27609;51.002;5.354;2022-07-11T05:03:48;9.35;;;8.25;;
41921;SDS011;27609;51.002;5.354;2022-07-11T05:06:16;12.20;;;8.65;;
41921;SDS011;27609;51.002;5.354;2022-07-11T05:08:42;12.75;;;9.52;;
41921;SDS011;27609;51.002;5.354;2022-07-11T05:11:09;12.13;;;9.20;;
41921;SDS011;27609;51.002;5.354;2022-07-11T05:13:35;11.60;;;9.30;;
41921;SDS011;27609;51.002;5.354;2022-07-11T05:16:02;15.57;;;9.68;;
41921;SDS011;27609;51.002;5.354;2022-07-11T05:18:29;14.60;;;10.75;;
41921;SDS011;27609;51.002;5.354;2022-07-11T05:20:54;13.25;;;9.80;;
41921;SDS011;27609;51.002;5.354;2022-07-11T05:23:22;14.05;;;11.18;;
41921;SDS011;27609;51.002;5.354;2022-07-11T05:25:48;17.08;;;11.10;;
41921;SDS011;27609;51.002;5.354;2022-07-11T05:28:14;16.13;;;11.25;;
41921;SDS011;27609;51.002;5.354;2022-07-11T05:30:40;17.42;;;11.77;;
41921;SDS011;27609;51.002;5.354;2022-07-11T05:33:06;20.00;;;12.55;;
41921;SDS011;27609;51.002;5.354;2022-07-11T05:35:31;15.07;;;12.07;;
41921;SDS011;27609;51.002;5.354;2022-07-11T05:37:57;17.48;;;13.35;;
41921;SDS011;27609;51.002;5.354;2022-07-11T05:40:23;19.30;;;13.63;;
41921;SDS011;27609;51.002;5.354;2022-07-11T05:42:49;22.00;;;14.35;;
41921;SDS011;27609;51.002;5.354;2022-07-11T05:45:15;22.80;;;14.90;;
41921;SDS011;27609;51.002;5.354;2022-07-11T05:47:41;22.65;;;13.80;;
41921;SDS011;27609;51.002;5.354;2022-07-11T05:50:07;22.83;;;14.40;;
41921;SDS011;27609;51.002;5.354;2022-07-11T05:52:33;22.63;;;14.27;;
41921;SDS011;27609;51.002;5.354;2022-07-11T05:54:59;20.17;;;11.95;;
41921;SDS011;27609;51.002;5.354;2022-07-11T05:57:26;18.13;;;11.77;;
41921;SDS011;27609;51.002;5.354;2022-07-11T05:59:52;17.30;;;11.02;;
41921;SDS011;27609;51.002;5.354;2022-07-11T06:02:18;18.60;;;12.60;;
41921;SDS011;27609;51.002;5.354;2022-07-11T06:04:44;16.20;;;10.25;;
41921;SDS011;27609;51.002;5.354;2022-07-11T06:07:10;18.83;;;9.18;;
41921;SDS011;27609;51.002;5.354;2022-07-11T06:09:36;11.20;;;7.78;;
41921;SDS011;27609;51.002;5.354;2022-07-11T06:12:03;14.45;;;8.00;;
41921;SDS011;27609;51.002;5.354;2022-07-11T06:14:29;11.05;;;6.80;;
41921;SDS011;27609;51.002;5.354;2022-07-11T06:16:55;10.20;;;6.65;;
41921;SDS011;27609;51.002;5.354;2022-07-11T06:19:21;18.30;;;6.35;;
41921;SDS011;27609;51.002;5.354;2022-07-11T06:21:47;12.88;;;5.25;;
41921;SDS011;27609;51.002;5.354;2022-07-11T06:24:12;9.20;;;4.97;;
41921;SDS011;27609;51.002;5.354;2022-07-11T06:26:38;12.60;;;5.10;;
41921;SDS011;27609;51.002;5.354;2022-07-11T06:29:04;8.23;;;4.85;;
41921;SDS011;27609;51.002;5.354;2022-07-11T06:31:30;9.90;;;5.20;;
41921;SDS011;27609;51.002;5.354;2022-07-11T06:33:56;9.65;;;4.57;;
41921;SDS011;27609;51.002;5.354;2022-07-11T06:36:25;13.68;;;5.20;;
41921;SDS011;27609;51.002;5.354;2022-07-11T06:38:52;12.83;;;5.97;;
41921;SDS011;27609;51.002;5.354;2022-07-11T06:41:18;10.10;;;5.57;;
41921;SDS011;27609;51.002;5.354;2022-07-11T06:43:44;11.32;;;4.95;;
41921;SDS011;27609;51.002;5.354;2022-07-11T06:46:16;11.68;;;6.15;;
41921;SDS011;27609;51.002;5.354;2022-07-11T06:48:42;11.10;;;6.07;;
41921;SDS011;27609;51.002;5.354;2022-07-11T06:51:08;13.25;;;5.78;;
41921;SDS011;27609;51.002;5.354;2022-07-11T06:53:34;14.00;;;6.40;;
41921;SDS011;27609;51.002;5.354;2022-07-11T06:56:00;13.23;;;6.28;;
41921;SDS011;27609;51.002;5.354;2022-07-11T06:58:26;11.60;;;5.93;;
41921;SDS011;27609;51.002;5.354;2022-07-11T07:00:58;12.23;;;5.72;;
41921;SDS011;27609;51.002;5.354;2022-07-11T07:03:25;11.00;;;4.95;;
41921;SDS011;27609;51.002;5.354;2022-07-11T07:05:51;15.23;;;5.97;;
41921;SDS011;27609;51.002;5.354;2022-07-11T07:08:20;11.88;;;6.57;;
41921;SDS011;27609;51.002;5.354;2022-07-11T07:10:48;12.73;;;6.55;;
41921;SDS011;27609;51.002;5.354;2022-07-11T07:13:14;16.33;;;6.10;;
41921;SDS011;27609;51.002;5.354;2022-07-11T07:15:40;8.65;;;5.43;;
41921;SDS011;27609;51.002;5.354;2022-07-11T07:18:06;8.85;;;4.80;;
41921;SDS011;27609;51.002;5.354;2022-07-11T07:20:32;13.20;;;4.75;;
41921;SDS011;27609;51.002;5.354;2022-07-11T07:22:58;8.07;;;4.78;;
41921;SDS011;27609;51.002;5.354;2022-07-11T07:25:24;12.57;;;5.07;;
41921;SDS011;27609;51.002;5.354;2022-07-11T07:27:50;9.50;;;4.25;;
41921;SDS011;27609;51.002;5.354;2022-07-11T07:30:16;7.63;;;4.15;;
41921;SDS011;27609;51.002;5.354;2022-07-11T07:32:42;6.85;;;3.70;;
41921;SDS011;27609;51.002;5.354;2022-07-11T07:35:08;5.88;;;3.40;;
41921;SDS011;27609;51.002;5.354;2022-07-11T07:37:34;8.52;;;4.18;;
41921;SDS011;27609;51.002;5.354;2022-07-11T07:40:00;6.68;;;3.88;;
41921;SDS011;27609;51.002;5.354;2022-07-11T07:42:26;9.73;;;4.05;;
41921;SDS011;27609;51.002;5.354;2022-07-11T07:44:52;6.93;;;3.92;;
41921;SDS011;27609;51.002;5.354;2022-07-11T07:47:17;8.35;;;4.25;;
41921;SDS011;27609;51.002;5.354;2022-07-11T07:49:43;9.68;;;4.32;;
41921;SDS011;27609;51.002;5.354;2022-07-11T07:52:09;6.80;;;3.83;;
41921;SDS011;27609;51.002;5.354;2022-07-11T07:54:35;5.95;;;3.97;;
41921;SDS011;27609;51.002;5.354;2022-07-11T07:57:01;8.30;;;3.83;;
41921;SDS011;27609;51.002;5.354;2022-07-11T07:59:27;9.43;;;4.15;;
41921;SDS011;27609;51.002;5.354;2022-07-11T08:01:53;6.82;;;3.45;;
41921;SDS011;27609;51.002;5.354;2022-07-11T08:04:19;8.82;;;3.35;;
41921;SDS011;27609;51.002;5.354;2022-07-11T08:06:45;8.88;;;3.20;;
41921;SDS011;27609;51.002;5.354;2022-07-11T08:09:11;7.35;;;3.58;;
41921;SDS011;27609;51.002;5.354;2022-07-11T08:11:37;6.50;;;3.63;;
41921;SDS011;27609;51.002;5.354;2022-07-11T08:14:04;6.65;;;3.53;;
41921;SDS011;27609;51.002;5.354;2022-07-11T08:16:33;6.93;;;3.95;;
41921;SDS011;27609;51.002;5.354;2022-07-11T08:18:59;11.88;;;4.55;;
41921;SDS011;27609;51.002;5.354;2022-07-11T08:21:27;6.45;;;3.70;;
41921;SDS011;27609;51.002;5.354;2022-07-11T08:23:54;8.93;;;3.83;;
41921;SDS011;27609;51.002;5.354;2022-07-11T08:26:20;6.80;;;3.55;;
41921;SDS011;27609;51.002;5.354;2022-07-11T08:28:46;4.68;;;2.70;;
41921;SDS011;27609;51.002;5.354;2022-07-11T08:31:12;6.07;;;2.72;;
41921;SDS011;27609;51.002;5.354;2022-07-11T08:33:38;5.65;;;2.63;;
41921;SDS011;27609;51.002;5.354;2022-07-11T08:36:04;6.32;;;3.63;;
41921;SDS011;27609;51.002;5.354;2022-07-11T08:38:31;5.53;;;3.25;;
41921;SDS011;27609;51.002;5.354;2022-07-11T08:40:57;8.07;;;3.65;;
41921;SDS011;27609;51.002;5.354;2022-07-11T08:43:26;11.80;;;2.65;;
41921;SDS011;27609;51.002;5.354;2022-07-11T08:45:54;8.05;;;2.70;;
41921;SDS011;27609;51.002;5.354;2022-07-11T08:48:21;7.07;;;2.75;;
41921;SDS011;27609;51.002;5.354;2022-07-11T08:50:48;14.43;;;2.85;;
41921;SDS011;27609;51.002;5.354;2022-07-11T08:53:15;6.03;;;2.95;;
41921;SDS011;27609;51.002;5.354;2022-07-11T08:55:41;3.95;;;2.03;;
41921;SDS011;27609;51.002;5.354;2022-07-11T08:58:08;16.38;;;2.92;;
41921;SDS011;27609;51.002;5.354;2022-07-11T09:00:35;13.90;;;2.60;;
41921;SDS011;27609;51.002;5.354;2022-07-11T09:03:02;9.50;;;1.95;;
41921;SDS011;27609;51.002;5.354;2022-07-11T09:05:30;13.95;;;2.63;;
41921;SDS011;27609;51.002;5.354;2022-07-11T09:07:57;11.15;;;2.35;;
41921;SDS011;27609;51.002;5.354;2022-07-11T09:10:23;6.40;;;2.95;;
41921;SDS011;27609;51.002;5.354;2022-07-11T09:12:59;5.90;;;2.40;;
41921;SDS011;27609;51.002;5.354;2022-07-11T09:18:01;5.07;;;2.17;;
41921;SDS011;27609;51.002;5.354;2022-07-11T09:20:28;7.00;;;2.47;;
41921;SDS011;27609;51.002;5.354;2022-07-11T09:23:34;6.18;;;2.28;;
41921;SDS011;27609;51.002;5.354;2022-07-11T09:26:18;4.72;;;2.30;;
41921;SDS011;27609;51.002;5.354;2022-07-11T09:29:00;2.70;;;1.65;;
41921;SDS011;27609;51.002;5.354;2022-07-11T09:31:32;3.72;;;1.95;;
41921;SDS011;27609;51.002;5.354;2022-07-11T09:36:35;4.45;;;2.28;;
41921;SDS011;27609;51.002;5.354;2022-07-11T09:39:03;382.00;;;37.70;;
41921;SDS011;27609;51.002;5.354;2022-07-11T09:41:36;27.67;;;3.75;;
41921;SDS011;27609;51.002;5.354;2022-07-11T09:44:13;8.02;;;2.58;;
41921;SDS011;27609;51.002;5.354;2022-07-11T09:46:41;4.35;;;1.77;;
41921;SDS011;27609;51.002;5.354;2022-07-11T09:49:10;5.27;;;2.47;;
41921;SDS011;27609;51.002;5.354;2022-07-11T09:51:36;3.50;;;2.08;;
41921;SDS011;27609;51.002;5.354;2022-07-11T09:54:03;2.97;;;1.60;;
41921;SDS011;27609;51.002;5.354;2022-07-11T09:56:43;6.75;;;2.40;;
41921;SDS011;27609;51.002;5.354;2022-07-11T09:59:11;4.95;;;2.00;;
41921;SDS011;27609;51.002;5.354;2022-07-11T10:01:40;3.05;;;1.70;;
41921;SDS011;27609;51.002;5.354;2022-07-11T10:04:07;5.70;;;2.58;;
41921;SDS011;27609;51.002;5.354;2022-07-11T10:06:34;6.07;;;1.95;;
41921;SDS011;27609;51.002;5.354;2022-07-11T10:09:01;6.53;;;2.33;;
41921;SDS011;27609;51.002;5.354;2022-07-11T10:11:29;5.43;;;2.28;;
41921;SDS011;27609;51.002;5.354;2022-07-11T10:13:56;4.20;;;1.60;;
41921;SDS011;27609;51.002;5.354;2022-07-11T10:16:28;3.50;;;1.55;;
41921;SDS011;27609;51.002;5.354;2022-07-11T10:19:08;4.03;;;1.73;;
41921;SDS011;27609;51.002;5.354;2022-07-11T10:21:42;4.43;;;1.77;;
41921;SDS011;27609;51.002;5.354;2022-07-11T10:24:26;4.93;;;1.67;;
41921;SDS011;27609;51.002;5.354;2022-07-11T10:27:10;3.00;;;1.50;;
41921;SDS011;27609;51.002;5.354;2022-07-11T10:29:44;3.10;;;1.60;;
41921;SDS011;27609;51.002;5.354;2022-07-11T10:32:15;3.38;;;1.73;;
41921;SDS011;27609;51.002;5.354;2022-07-11T10:34:41;3.30;;;1.98;;
41921;SDS011;27609;51.002;5.354;2022-07-11T10:37:08;4.13;;;2.10;;
41921;SDS011;27609;51.002;5.354;2022-07-11T10:39:35;5.63;;;2.85;;
41921;SDS011;27609;51.002;5.354;2022-07-11T10:42:03;3.92;;;3.22;;
41921;SDS011;27609;51.002;5.354;2022-07-11T10:47:31;8.50;;;5.28;;
41921;SDS011;27609;51.002;5.354;2022-07-11T10:52:50;5.45;;;4.65;;
41921;SDS011;27609;51.002;5.354;2022-07-11T10:55:44;8.75;;;5.90;;
41921;SDS011;27609;51.002;5.354;2022-07-11T10:58:25;5.53;;;4.90;;
41921;SDS011;27609;51.002;5.354;2022-07-11T11:01:13;4.78;;;3.80;;
41921;SDS011;27609;51.002;5.354;2022-07-11T11:03:41;6.25;;;3.67;;
41921;SDS011;27609;51.002;5.354;2022-07-11T11:06:08;5.45;;;2.97;;
41921;SDS011;27609;51.002;5.354;2022-07-11T11:13:55;3.00;;;1.92;;
41921;SDS011;27609;51.002;5.354;2022-07-11T11:16:46;4.20;;;2.05;;
41921;SDS011;27609;51.002;5.354;2022-07-11T11:22:14;3.67;;;1.92;;
41921;SDS011;27609;51.002;5.354;2022-07-11T11:24:41;2.75;;;2.22;;
41921;SDS011;27609;51.002;5.354;2022-07-11T11:27:15;3.60;;;1.92;;
41921;SDS011;27609;51.002;5.354;2022-07-11T11:29:52;4.97;;;2.22;;
41921;SDS011;27609;51.002;5.354;2022-07-11T11:32:20;4.75;;;2.53;;
41921;SDS011;27609;51.002;5.354;2022-07-11T11:34:47;3.90;;;2.22;;
41921;SDS011;27609;51.002;5.354;2022-07-11T11:37:17;3.83;;;2.20;;
41921;SDS011;27609;51.002;5.354;2022-07-11T11:39:43;4.00;;;1.87;;
41921;SDS011;27609;51.002;5.354;2022-07-11T11:42:16;3.45;;;2.08;;
41921;SDS011;27609;51.002;5.354;2022-07-11T11:44:52;3.78;;;1.73;;
41921;SDS011;27609;51.002;5.354;2022-07-11T11:47:30;2.45;;;2.15;;
41921;SDS011;27609;51.002;5.354;2022-07-11T11:49:57;4.60;;;2.10;;
41921;SDS011;27609;51.002;5.354;2022-07-11T11:52:23;3.92;;;2.97;;
41921;SDS011;27609;51.002;5.354;2022-07-11T11:54:53;3.33;;;1.80;;
41921;SDS011;27609;51.002;5.354;2022-07-11T11:57:21;3.17;;;1.98;;
41921;SDS011;27609;51.002;5.354;2022-07-11T11:59:48;3.30;;;2.38;;
41921;SDS011;27609;51.002;5.354;2022-07-11T12:02:24;4.43;;;2.40;;
41921;SDS011;27609;51.002;5.354;2022-07-11T12:04:54;3.35;;;2.67;;
41921;SDS011;27609;51.002;5.354;2022-07-11T12:07:21;3.08;;;2.33;;
41921;SDS011;27609;51.002;5.354;2022-07-11T12:09:53;3.22;;;2.85;;
41921;SDS011;27609;51.002;5.354;2022-07-11T12:12:23;2.40;;;2.20;;
41921;SDS011;27609;51.002;5.354;2022-07-11T12:15:30;5.47;;;2.90;;
41921;SDS011;27609;51.002;5.354;2022-07-11T12:18:17;3.00;;;2.80;;
41921;SDS011;27609;51.002;5.354;2022-07-11T12:20:43;3.03;;;2.70;;
41921;SDS011;27609;51.002;5.354;2022-07-11T12:23:16;3.25;;;3.00;;
41921;SDS011;27609;51.002;5.354;2022-07-11T12:25:43;3.20;;;2.90;;
41921;SDS011;27609;51.002;5.354;2022-07-11T12:28:09;4.25;;;3.35;;
41921;SDS011;27609;51.002;5.354;2022-07-11T12:30:36;3.50;;;3.20;;
41921;SDS011;27609;51.002;5.354;2022-07-11T12:33:12;11.25;;;2.88;;
41921;SDS011;27609;51.002;5.354;2022-07-11T12:35:52;3.78;;;3.40;;
41921;SDS011;27609;51.002;5.354;2022-07-11T12:38:22;7.35;;;3.35;;
41921;SDS011;27609;51.002;5.354;2022-07-11T12:40:59;6.80;;;3.53;;
41921;SDS011;27609;51.002;5.354;2022-07-11T12:43:40;3.53;;;3.10;;
41921;SDS011;27609;51.002;5.354;2022-07-11T12:46:30;3.97;;;3.55;;
41921;SDS011;27609;51.002;5.354;2022-07-11T12:48:56;5.35;;;3.58;;
41921;SDS011;27609;51.002;5.354;2022-07-11T12:51:26;6.25;;;3.42;;
41921;SDS011;27609;51.002;5.354;2022-07-11T12:54:15;6.30;;;3.30;;
41921;SDS011;27609;51.002;5.354;2022-07-11T12:56:54;4.05;;;3.50;;
41921;SDS011;27609;51.002;5.354;2022-07-11T12:59:24;5.00;;;4.10;;
41921;SDS011;27609;51.002;5.354;2022-07-11T13:01:55;4.97;;;4.20;;
41921;SDS011;27609;51.002;5.354;2022-07-11T13:04:39;4.20;;;3.50;;
41921;SDS011;27609;51.002;5.354;2022-07-11T13:07:18;5.18;;;3.63;;
41921;SDS011;27609;51.002;5.354;2022-07-11T13:10:04;4.40;;;4.00;;
41921;SDS011;27609;51.002;5.354;2022-07-11T13:12:31;6.80;;;4.20;;
41921;SDS011;27609;51.002;5.354;2022-07-11T13:14:59;5.60;;;3.67;;
41921;SDS011;27609;51.002;5.354;2022-07-11T13:17:41;6.88;;;3.60;;
41921;SDS011;27609;51.002;5.354;2022-07-11T13:20:13;4.65;;;4.18;;
41921;SDS011;27609;51.002;5.354;2022-07-11T13:22:44;5.68;;;4.10;;
41921;SDS011;27609;51.002;5.354;2022-07-11T13:25:12;4.82;;;4.13;;
41921;SDS011;27609;51.002;5.354;2022-07-11T13:27:40;4.38;;;3.97;;
41921;SDS011;27609;51.002;5.354;2022-07-11T13:30:08;4.43;;;3.97;;
41921;SDS011;27609;51.002;5.354;2022-07-11T13:32:41;3.65;;;3.13;;
41921;SDS011;27609;51.002;5.354;2022-07-11T13:35:09;4.18;;;3.58;;
41921;SDS011;27609;51.002;5.354;2022-07-11T13:37:36;4.05;;;3.70;;
41921;SDS011;27609;51.002;5.354;2022-07-11T13:40:06;9.25;;;4.65;;
41921;SDS011;27609;51.002;5.354;2022-07-11T13:42:36;4.15;;;3.40;;
41921;SDS011;27609;51.002;5.354;2022-07-11T13:45:03;6.43;;;3.50;;
41921;SDS011;27609;51.002;5.354;2022-07-11T13:47:30;4.47;;;4.07;;
41921;SDS011;27609;51.002;5.354;2022-07-11T13:49:57;4.82;;;3.83;;
41921;SDS011;27609;51.002;5.354;2022-07-11T13:52:24;3.75;;;3.55;;
41921;SDS011;27609;51.002;5.354;2022-07-11T13:54:50;4.50;;;4.10;;
41921;SDS011;27609;51.002;5.354;2022-07-11T13:57:16;4.63;;;4.22;;
41921;SDS011;27609;51.002;5.354;2022-07-11T13:59:42;5.25;;;3.47;;
41921;SDS011;27609;51.002;5.354;2022-07-11T14:02:08;4.50;;;4.10;;
41921;SDS011;27609;51.002;5.354;2022-07-11T14:04:34;4.05;;;3.53;;
41921;SDS011;27609;51.002;5.354;2022-07-11T14:07:00;4.50;;;4.13;;
41921;SDS011;27609;51.002;5.354;2022-07-11T14:09:26;4.30;;;3.90;;
41921;SDS011;27609;51.002;5.354;2022-07-11T14:11:53;3.67;;;3.38;;
41921;SDS011;27609;51.002;5.354;2022-07-11T14:14:19;5.75;;;3.97;;
41921;SDS011;27609;51.002;5.354;2022-07-11T14:16:45;4.10;;;3.70;;
41921;SDS011;27609;51.002;5.354;2022-07-11T14:19:12;5.03;;;3.70;;
41921;SDS011;27609;51.002;5.354;2022-07-11T14:21:38;7.00;;;4.10;;
41921;SDS011;27609;51.002;5.354;2022-07-11T14:24:05;5.60;;;4.00;;
41921;SDS011;27609;51.002;5.354;2022-07-11T14:26:33;5.75;;;4.03;;
41921;SDS011;27609;51.002;5.354;2022-07-11T14:28:59;5.22;;;3.80;;
41921;SDS011;27609;51.002;5.354;2022-07-11T14:31:27;4.65;;;3.95;;
41921;SDS011;27609;51.002;5.354;2022-07-11T14:33:54;4.25;;;3.85;;
41921;SDS011;27609;51.002;5.354;2022-07-11T14:36:20;5.82;;;4.63;;
41921;SDS011;27609;51.002;5.354;2022-07-11T14:38:46;5.88;;;4.50;;
41921;SDS011;27609;51.002;5.354;2022-07-11T14:41:13;7.55;;;4.95;;
41921;SDS011;27609;51.002;5.354;2022-07-11T14:43:41;4.93;;;4.00;;
41921;SDS011;27609;51.002;5.354;2022-07-11T14:46:10;6.10;;;4.77;;
41921;SDS011;27609;51.002;5.354;2022-07-11T14:48:39;6.20;;;4.45;;
41921;SDS011;27609;51.002;5.354;2022-07-11T14:51:07;4.32;;;3.92;;
41921;SDS011;27609;51.002;5.354;2022-07-11T14:53:33;4.32;;;3.92;;
41921;SDS011;27609;51.002;5.354;2022-07-11T14:55:59;4.20;;;3.80;;
41921;SDS011;27609;51.002;5.354;2022-07-11T14:58:25;5.72;;;4.45;;
41921;SDS011;27609;51.002;5.354;2022-07-11T15:00:51;4.80;;;4.30;;
41921;SDS011;27609;51.002;5.354;2022-07-11T15:03:17;4.78;;;4.35;;
41921;SDS011;27609;51.002;5.354;2022-07-11T15:06:02;4.38;;;3.97;;
41921;SDS011;27609;51.002;5.354;2022-07-11T15:08:28;5.32;;;4.22;;
41921;SDS011;27609;51.002;5.354;2022-07-11T15:11:12;5.10;;;4.40;;
41921;SDS011;27609;51.002;5.354;2022-07-11T15:13:56;5.40;;;3.90;;